AirNav   Pilot Hours Calculator
 
 1174 users online  

6N7 New York Skyports Inc Seaplane Base
New York, New York, USA

GOING TO NEW YORK?


FAA INFORMATION EFFECTIVE 22 APRIL 2021

Location

FAA Identifier: 6N7
Lat/Long: 40-44-02.3670N 073-58-22.4990W
40-44.039450N 073-58.374983W
40.7339908,-73.9729164
(estimated)
Elevation: 0 ft. / 0 m (estimated)
Variation: 13W (1985)
Time zone: UTC -4 (UTC -5 during Standard Time)
Zip code: 10199

Seaplane Base Operations

Seaplane Base use: Open to the public
Activation date: 12/1946
Control tower: no
ARTCC: NEW YORK CENTER
FSS: NEW YORK FLIGHT SERVICE STATION
NOTAMs facility: ISP (NOTAM-D service available)
Attendance: 0800-DUSK
Wind indicator: yes
Segmented circle: no
Landing fee: yes

Seaplane Base Communications

CTAF: 122.9
WX AWOS-3PT at JRB (2.6 nm SW): 128.175 (212-425-1534)
WX ASOS at LGA (5 nm NE): PHONE 718-672-6317
WX ASOS at TEB (8 nm NW): PHONE 201-393-0855
WX ASOS at EWR (9 nm W): PHONE 973-621-2892
WX ASOS at JFK (10 nm SE): 128.725 (718-656-0956)
WX AWOS-3 at LDJ (14 nm SW): 124.025 (908-862-7383)
WX ASOS at CDW (16 nm NW): 135.5 (973-575-4417)

Nearby radio navigation aids

VOR radial/distance  VOR name  Freq  Var
LGAr250/5.6LA GUARDIA VOR/DME113.1012W
TEBr160/8.0TETERBORO VOR/DME108.4011W
CRIr345/8.1CANARSIE VOR/DME112.3011W
JFKr315/11.0KENNEDY VOR/DME115.9012W
COLr030/26.7COLTS NECK VOR/DME115.4011W
DPKr275/30.6DEER PARK VOR/DME117.7012W
SAXr139/32.5SPARTA VORTAC115.7011W
SBJr085/36.1SOLBERG VOR/DME112.9010W
CMKr220/37.3CARMEL VOR/DME116.6012W
BWZr107/38.8BROADWAY VOR/DME114.2011W
RBVr047/39.8ROBBINSVILLE VORTAC113.8010W

 
NDB name  Hdg/Dist  Freq  Var  ID
TORBY132/8.421412WTE - .
CHATHAM104/20.825413WCAT -.-. .- -
BABYLON292/27.027514WBBN -... -... -.

Seaplane Base Services

Runway Information

Runway N/S

Dimensions: 10000 x 1000 ft. / 3048 x 305 m
Surface: water
RUNWAY N  RUNWAY S
Traffic pattern: leftleft

Seaplane Base Ownership and Management from official FAA records

Ownership: Publicly-owned
Owner: NEW YORK CITY - ECONOMIC DEV CORP
2430 FDR DRIVE - EAST SERVICE RD
NEW YORK, NY 10010
Phone (212) 481-4806
Manager: TORRELL MILLER
2430 FDR DRIVE - EAST SERVICE RD
NEW YORK, NY 10010
Phone (201) 214-0969

Seaplane Base Operational Statistics

Aircraft operations: avg 34/week *
100% air taxi
* for 12-month period ending 11 April 2019

Additional Remarks

E RIVER-VELOCITY 2.6MPH IN SSW DRCTN. HVY BOAT TFC IN RIVER.
PILOTS REQUIRED TO TAXI 1000' OFF-SHORE ON MANHATAN SIDE BEFORE BEGINNING TAKEOFF.
PILOTS REQUIRED NOT TO FLY OVER THE 59TH STREET BRIDGE.
3 BLADED PROPS REQ'D ON ALL SEAPLANES.
PILOTS MUST COMPLETE A PROVING FLIGHT W/AN AUTHORIZED MEMBER OF THE N.E. SEAPLANES PILOT'S ASSOC. PRIOR TO SPB USE
NO TIE-DOWNS AND NO OVERNIGHT STAYS AVBL.
FOR CD CTC NEW YORK APCH AT 800-645-3206.
CH13 (VHF 165.65) IS MONITORED AT SEAPORT FOR INBD BOAT TFC AND INTERSHIP NAV SAFETY.

Instrument Procedures

There are no published instrument procedures at 6N7.

Some nearby airports with instrument procedures:

6N5 - East 34th Street Heliport (1 nm N)
KJRA - West 30th St Heliport (2 nm NW)
KJRB - Downtown Manhattan/Wall Street Heliport (3 nm SW)
KLGA - LaGuardia Airport (5 nm NE)
KTEB - Teterboro Airport (8 nm NW)
KEWR - Newark Liberty International Airport (9 nm W)
KJFK - John F Kennedy International Airport (10 nm SE)
KLDJ - Linden Airport (14 nm SW)
KCDW - Essex County Airport (16 nm NW)
 
Loc | Ops | Rwys | IFR | FBO | Links
Com | Nav | Svcs | Stats | Notes
Area around 6N7 (New York Skyports Inc Seaplane Base)
 
Road maps at: MapQuest Bing Google
 
Aerial photo
WARNING: Photo may not be current or correct
Aerial photo of 6N7 (New York Skyports Inc Seaplane Base)
Photo by Dave Lu
Photo taken 28-Jun-2013
looking north.

Do you have a better or more recent aerial photo of New York Skyports Inc Seaplane Base that you would like to share? If so, please send us your photo.

 
Sectional chart

 
Airport distance calculator
Flying to New York Skyports Inc Seaplane Base? Find the distance to fly.

From to 6N7

Sunrise and sunset
Times for 15-May-2021
 Local
(UTC-4)
 Zulu
(UTC)
Morning civil twilight05:0909:09
Sunrise05:4009:40
Sunset20:0500:05
Evening civil twilight20:3600:36

Current date and time
Zulu (UTC)  15-May-2021 18:35:42
Local (UTC-4)  15-May-2021 14:35:42
 
METAR
KJRB 
3nm SW 
151756Z AUTO 23007KT 10SM CLR 24/04 A3024 RMK AO2 SLP238 T02390044 10244 20144 58008
KNYC 
3nm N 
151751Z AUTO VRB03KT 10SM SCT095 23/02 A3025 RMK AO2 SLP233 T02280022 10261 20172 58009 $
KLGA 
5nm NE 
151751Z VRB06KT 10SM FEW080 FEW150 SCT250 24/01 A3021 RMK AO2 SLP231 T02390006 10250 20167 58010 $
KTEB 
9nm NW 
151751Z 23006G20KT 10SM BKN110 23/02 A3020 RMK AO2 SLP226 T02280017 10244 20156 58013
KEWR 
9nm W 
151751Z 15009KT 10SM SCT100 SCT250 25/02 A3022 RMK AO2 SLP231 T02500017 10261 20172 58010
KJFK 
11nm SE 
151751Z 19009KT 10SM SCT085 SCT150 21/04 A3025 RMK AO2 SLP242 T02110044 10239 20133 58002
KLDJ 
14nm SW 
151815Z AUTO 16008KT 10SM CLR 25/M01 A3022 RMK AO2 T02451013
KCDW 
17nm NW 
151753Z 31012KT 10SM BKN110 23/02 A3023 RMK AO2 SLP241 T02280022 10256 20139 55005
TAF
KLGA 
5nm NE 
151741Z 1518/1624 VRB04KT P6SM SCT050 SCT100 TEMPO 1519/1522 18007KT FM160100 20009KT P6SM FEW050 SCT080 FM160500 VRB05KT P6SM BKN250 FM161500 25007KT P6SM SCT080 BKN250 FM162200 19006KT P6SM BKN080 BKN120
KTEB 
9nm NW 
151741Z 1518/1624 24004KT P6SM FEW100 FM151900 18007KT P6SM SCT040 SCT100 FM160100 VRB04KT P6SM BKN250 FM161500 23004KT P6SM FEW080 BKN250 FM162200 19006KT P6SM BKN080 BKN250
KEWR 
9nm W 
151741Z 1518/1624 14006KT P6SM FEW050 SCT100 FM151900 16009KT P6SM SCT050 SCT080 FM160100 20005KT P6SM SCT050 SCT080 FM160500 VRB05KT P6SM BKN250 FM161500 23005KT P6SM FEW080 BKN250 FM161900 17007KT P6SM SCT080 BKN250
KJFK 
11nm SE 
151741Z 1518/1624 18013KT P6SM SCT050 SCT080 FM160100 22010KT P6SM FEW050 SCT080 FM160500 VRB05KT P6SM BKN250 FM161500 22007KT P6SM BKN250 FM161700 18012KT P6SM SCT080 SCT120
NOTAMs
Click for the latest NOTAMs
NOTAMs are issued by the DoD/FAA and will open in a separate window not controlled by AirNav.

 

 
 

Would you like to see your business listed on this page?

 If your business provides an interesting product or service to pilots, flight crews, aircraft, or users of the New York Skyports Inc Seaplane Base, you should consider listing it here.  To start the listing process, click on the button below
 
Add a business
 

Other Pages about New York Skyports Inc Seaplane Base

Update a link
 
Copyright © AirNav, LLC. All rights reserved. Privacy Policy  Contact